createdAt,value
2019-06-01T00:01:49.035Z,14.30
2019-06-01T00:04:19.030Z,14.30
2019-06-01T00:06:49.086Z,14.20
2019-06-01T00:09:19.389Z,14.30
2019-06-01T00:11:49.648Z,14.20
2019-06-01T00:14:22.443Z,14.10
2019-06-01T00:16:52.467Z,14.20
2019-06-01T00:19:22.542Z,14.50
2019-06-01T00:21:52.666Z,14.80
2019-06-01T00:24:22.644Z,14.70
2019-06-01T00:26:52.636Z,14.70
2019-06-01T00:29:22.810Z,14.70
2019-06-01T00:31:52.845Z,14.70
2019-06-01T00:34:22.885Z,14.70
2019-06-01T00:36:52.959Z,14.70
2019-06-01T00:39:22.919Z,14.70
2019-06-01T00:41:53.009Z,14.70
2019-06-01T00:44:23.132Z,14.60
2019-06-01T00:46:53.252Z,14.20
2019-06-01T00:49:23.193Z,14.20
2019-06-01T00:51:53.793Z,14.10
2019-06-01T00:54:23.870Z,14.10
2019-06-01T00:56:54.022Z,14.10
2019-06-01T00:59:24.087Z,14.10
2019-06-01T01:01:54.356Z,14.50
2019-06-01T01:04:24.369Z,14.60
2019-06-01T01:06:54.810Z,14.40
2019-06-01T01:09:24.882Z,14.60
2019-06-01T01:11:55.340Z,14.60
2019-06-01T01:14:25.447Z,14.60
2019-06-01T01:16:55.763Z,14.50
2019-06-01T01:19:25.961Z,14.40
2019-06-01T01:21:56.499Z,14.30
2019-06-01T01:24:26.654Z,14.10
2019-06-01T01:26:56.881Z,14.00
2019-06-01T01:29:26.846Z,13.90
2019-06-01T01:31:57.359Z,13.80
2019-06-01T01:34:27.549Z,13.80
2019-06-01T01:36:58.117Z,13.70
2019-06-01T01:39:28.115Z,13.80
2019-06-01T01:41:58.639Z,13.80
2019-06-01T01:44:28.758Z,13.80
2019-06-01T01:46:59.074Z,13.80
2019-06-01T01:49:29.163Z,13.90
2019-06-01T01:51:59.564Z,13.50
2019-06-01T01:54:29.679Z,13.30
2019-06-01T01:56:59.677Z,13.20
2019-06-01T01:59:29.624Z,13.10
2019-06-01T02:01:59.551Z,13.50
2019-06-01T02:04:29.546Z,13.70
2019-06-01T02:07:00.310Z,13.70
2019-06-01T02:09:30.450Z,13.70
2019-06-01T02:12:01.824Z,13.70
2019-06-01T02:14:31.942Z,13.60
2019-06-01T02:17:02.566Z,13.60
2019-06-01T02:19:32.591Z,13.60
2019-06-01T02:22:03.685Z,13.60
2019-06-01T02:24:33.978Z,13.60
2019-06-01T02:27:04.073Z,13.50
2019-06-01T02:29:34.122Z,13.10
2019-06-01T02:32:06.480Z,13.00
2019-06-01T02:34:35.991Z,13.00
2019-06-01T02:37:06.126Z,13.30
2019-06-01T02:39:36.179Z,13.40
2019-06-01T02:42:08.072Z,13.50
2019-06-01T02:44:38.592Z,13.40
2019-06-01T02:47:08.701Z,13.40
2019-06-01T02:49:38.803Z,13.40
2019-06-01T02:52:08.833Z,13.40
2019-06-01T02:54:38.866Z,13.50
2019-06-01T02:57:08.969Z,13.50
2019-06-01T02:59:39.038Z,13.50
2019-06-01T03:02:13.560Z,13.40
2019-06-01T03:04:41.441Z,13.30
2019-06-01T03:07:13.336Z,13.30
2019-06-01T03:09:45.891Z,13.30
2019-06-01T03:12:19.710Z,13.10
2019-06-01T03:14:54.040Z,13.00
2019-06-01T03:17:27.934Z,13.00
2019-06-01T03:20:04.511Z,13.20
2019-06-01T03:22:35.104Z,13.00
2019-06-01T03:25:08.077Z,13.30
2019-06-01T03:27:41.580Z,13.40
2019-06-01T03:30:15.463Z,13.40
2019-06-01T03:32:44.518Z,13.30
2019-06-01T03:35:14.610Z,13.30
2019-06-01T03:37:44.689Z,13.20
2019-06-01T03:40:23.449Z,12.90
2019-06-01T03:42:46.477Z,12.60
2019-06-01T03:45:16.615Z,12.80
2019-06-01T03:47:46.636Z,13.10
2019-06-01T03:50:16.615Z,13.10
2019-06-01T03:52:46.639Z,13.20
2019-06-01T03:55:16.683Z,13.20
2019-06-01T03:57:46.701Z,13.20
2019-06-01T04:00:17.010Z,13.20
2019-06-01T04:02:47.049Z,13.20
2019-06-01T04:05:17.264Z,13.30
2019-06-01T04:07:47.247Z,13.20
2019-06-01T04:10:17.390Z,13.30
2019-06-01T04:12:47.547Z,13.40
2019-06-01T04:15:17.753Z,13.40
2019-06-01T04:17:47.743Z,13.50
2019-06-01T04:20:17.934Z,13.60
2019-06-01T04:22:47.899Z,13.50
2019-06-01T04:25:17.888Z,13.40
2019-06-01T04:27:47.902Z,13.50
2019-06-01T04:30:20.009Z,13.60
2019-06-01T04:32:50.626Z,13.50
2019-06-01T04:35:20.851Z,13.60
2019-06-01T04:37:50.938Z,13.80
2019-06-01T04:40:21.030Z,13.80
2019-06-01T04:42:51.007Z,13.80
2019-06-01T04:45:21.032Z,13.80
2019-06-01T04:47:50.992Z,13.90
2019-06-01T04:50:21.028Z,13.90
2019-06-01T04:52:51.090Z,14.10
2019-06-01T04:55:21.057Z,14.10
2019-06-01T04:57:51.092Z,14.20
2019-06-01T05:00:27.288Z,14.30
2019-06-01T05:03:04.870Z,14.30
2019-06-01T05:05:25.158Z,14.50
2019-06-01T05:07:55.253Z,14.60
2019-06-01T05:10:25.358Z,14.70
2019-06-01T05:12:55.409Z,14.80
2019-06-01T05:15:25.608Z,14.90
2019-06-01T05:17:55.625Z,15.10
2019-06-01T05:20:25.729Z,15.10
2019-06-01T05:22:55.806Z,15.20
2019-06-01T05:25:25.765Z,15.40
2019-06-01T05:27:55.713Z,15.50
2019-06-01T05:30:25.865Z,15.60
2019-06-01T05:32:55.935Z,15.80
2019-06-01T05:35:26.008Z,15.90
2019-06-01T05:37:56.112Z,16.00
2019-06-01T05:40:26.262Z,16.20
2019-06-01T05:42:56.287Z,16.40
2019-06-01T05:45:26.495Z,16.50
2019-06-01T05:47:56.708Z,16.70
2019-06-01T05:50:26.690Z,16.90
2019-06-01T05:52:56.703Z,17.00
2019-06-01T05:55:26.794Z,17.00
2019-06-01T05:57:56.935Z,17.20
2019-06-01T06:00:40.719Z,17.20
2019-06-01T06:03:14.649Z,17.30
2019-06-01T06:05:43.350Z,17.40
2019-06-01T06:08:14.459Z,17.70
2019-06-01T06:10:45.128Z,18.00
2019-06-01T06:13:15.372Z,17.70
2019-06-01T06:15:45.960Z,17.80
2019-06-01T06:18:15.928Z,17.90
2019-06-01T06:20:46.023Z,18.10
2019-06-01T06:23:16.434Z,18.30
2019-06-01T06:25:46.511Z,18.50
2019-06-01T06:28:16.724Z,18.50
2019-06-01T06:30:46.871Z,18.60
2019-06-01T06:33:17.382Z,18.70
2019-06-01T06:35:47.545Z,18.90
2019-06-01T06:38:17.826Z,19.00
2019-06-01T06:40:47.988Z,19.20
2019-06-01T06:43:23.639Z,19.30
2019-06-01T06:45:49.879Z,19.50
2019-06-01T06:48:21.161Z,19.60
2019-06-01T06:50:51.365Z,19.60
2019-06-01T06:53:31.798Z,19.70
2019-06-01T06:55:53.033Z,20.10
2019-06-01T06:58:24.321Z,19.90
2019-06-01T07:00:54.540Z,19.80
2019-06-01T07:03:25.185Z,19.90
2019-06-01T07:05:55.437Z,20.00
2019-06-01T07:08:25.978Z,20.40
2019-06-01T07:10:56.158Z,20.50
2019-06-01T07:13:26.086Z,20.20
2019-06-01T07:15:56.146Z,20.20
2019-06-01T07:18:26.103Z,20.30
2019-06-01T07:20:56.130Z,20.40
2019-06-01T07:23:26.311Z,20.60
2019-06-01T07:25:56.406Z,20.70
2019-06-01T07:28:26.440Z,20.60
2019-06-01T07:30:56.440Z,20.80
2019-06-01T07:33:26.541Z,20.90
2019-06-01T07:35:56.523Z,20.90
2019-06-01T07:38:26.855Z,21.10
2019-06-01T07:40:56.966Z,21.00
2019-06-01T07:43:26.917Z,21.00
2019-06-01T07:45:56.978Z,21.20
2019-06-01T07:48:27.198Z,21.30
2019-06-01T07:50:57.103Z,21.20
2019-06-01T07:53:27.455Z,21.10
2019-06-01T07:55:57.640Z,21.20
2019-06-01T07:58:28.796Z,21.30
2019-06-01T08:00:58.936Z,21.60
2019-06-01T08:03:32.657Z,21.50
2019-06-01T08:06:00.713Z,21.60
2019-06-01T08:08:31.537Z,21.70
2019-06-01T08:11:01.575Z,21.70
2019-06-01T08:13:35.308Z,21.70
2019-06-01T08:16:03.495Z,21.60
2019-06-01T08:18:33.506Z,21.60
2019-06-01T08:21:03.512Z,21.70
2019-06-01T08:23:33.658Z,21.90
2019-06-01T08:26:03.827Z,22.00
2019-06-01T08:28:33.795Z,22.20
2019-06-01T08:31:03.910Z,22.20
2019-06-01T08:33:34.999Z,22.30
2019-06-01T08:36:05.467Z,22.40
2019-06-01T08:38:35.500Z,22.50
2019-06-01T08:41:05.746Z,22.50
2019-06-01T08:43:35.669Z,22.50
2019-06-01T08:46:05.936Z,22.50
2019-06-01T08:48:35.966Z,22.60
2019-06-01T08:51:06.135Z,22.50
2019-06-01T08:53:36.307Z,22.60
2019-06-01T08:56:06.578Z,22.70
2019-06-01T08:58:36.685Z,22.80
2019-06-01T09:01:06.844Z,22.80
2019-06-01T09:03:45.487Z,23.00
2019-06-01T09:06:08.643Z,23.00
2019-06-01T09:08:38.693Z,22.90
2019-06-01T09:11:08.751Z,23.10
2019-06-01T09:13:38.933Z,23.20
2019-06-01T09:16:09.083Z,23.50
2019-06-01T09:18:39.119Z,23.50
2019-06-01T09:21:09.195Z,23.60
2019-06-01T09:23:39.211Z,23.50
2019-06-01T09:26:09.369Z,23.30
2019-06-01T09:28:39.311Z,23.40
2019-06-01T09:31:09.440Z,23.40
2019-06-01T09:33:39.552Z,23.40
2019-06-01T09:36:09.693Z,23.50
2019-06-01T09:38:39.824Z,23.50
2019-06-01T09:41:09.784Z,23.30
2019-06-01T09:43:39.910Z,23.50
2019-06-01T09:46:10.003Z,23.80
2019-06-01T09:48:39.953Z,24.00
2019-06-01T09:51:10.064Z,24.20
2019-06-01T09:53:40.188Z,24.30
2019-06-01T09:56:10.287Z,24.40
2019-06-01T09:58:40.442Z,24.50
2019-06-01T10:01:10.412Z,24.40
2019-06-01T10:03:40.488Z,24.50
2019-06-01T10:06:13.874Z,24.60
2019-06-01T10:08:42.498Z,24.70
2019-06-01T10:11:12.629Z,24.60
2019-06-01T10:13:42.778Z,24.60
2019-06-01T10:16:12.884Z,24.60
2019-06-01T10:18:43.193Z,24.30
2019-06-01T10:21:14.450Z,24.50
2019-06-01T10:23:49.098Z,24.40
2019-06-01T10:26:16.315Z,24.60
2019-06-01T10:28:46.308Z,24.70
2019-06-01T10:31:16.340Z,24.80
2019-06-01T10:33:46.253Z,24.80
2019-06-01T10:36:20.541Z,24.20
2019-06-01T10:38:47.994Z,24.30
2019-06-01T10:41:18.042Z,24.50
2019-06-01T10:43:47.953Z,24.70
2019-06-01T10:46:17.896Z,24.90
2019-06-01T10:48:47.852Z,24.80
2019-06-01T10:51:17.866Z,24.60
2019-06-01T10:53:47.882Z,25.00
2019-06-01T10:56:17.846Z,25.20
2019-06-01T10:58:59.174Z,25.30
2019-06-01T11:01:19.663Z,25.40
2019-06-01T11:03:49.600Z,25.40
2019-06-01T11:06:35.993Z,26.00
2019-06-01T11:08:51.297Z,26.60
2019-06-01T11:11:21.341Z,26.60
2019-06-01T11:13:51.279Z,27.20
2019-06-01T11:16:22.346Z,27.70
2019-06-01T11:18:52.293Z,28.00
2019-06-01T11:21:22.639Z,27.70
2019-06-01T11:23:52.668Z,28.60
2019-06-01T11:26:22.632Z,28.60
2019-06-01T11:28:52.753Z,26.80
2019-06-01T11:31:22.764Z,26.20
2019-06-01T11:33:52.840Z,27.20
2019-06-01T11:36:22.936Z,27.90
2019-06-01T11:38:52.893Z,28.20
2019-06-01T11:41:22.996Z,28.80
2019-06-01T11:43:52.919Z,28.50
2019-06-01T11:46:22.973Z,27.80
2019-06-01T11:48:53.078Z,27.90
2019-06-01T11:51:23.460Z,28.40
2019-06-01T11:53:53.523Z,28.60
2019-06-01T11:56:23.637Z,28.30
2019-06-01T11:58:53.664Z,27.70
2019-06-01T12:01:23.774Z,27.90
2019-06-01T12:03:53.701Z,27.80
2019-06-01T12:06:23.740Z,28.30
2019-06-01T12:08:53.787Z,28.80
2019-06-01T12:11:24.282Z,29.10
2019-06-01T12:13:54.371Z,29.60
2019-06-01T12:16:24.497Z,30.20
2019-06-01T12:18:54.512Z,30.20
2019-06-01T12:21:24.624Z,30.00
2019-06-01T12:23:54.647Z,30.00
2019-06-01T12:26:24.579Z,30.00
2019-06-01T12:28:54.532Z,30.80
2019-06-01T12:31:24.556Z,31.10
2019-06-01T12:33:54.499Z,31.20
2019-06-01T12:36:24.454Z,30.90
2019-06-01T12:38:54.540Z,31.10
2019-06-01T12:41:24.757Z,30.80
2019-06-01T12:44:13.792Z,30.60
2019-06-01T12:46:44.365Z,31.00
2019-06-01T12:49:14.384Z,31.70
2019-06-01T12:51:44.663Z,31.30
2019-06-01T12:54:14.650Z,31.70
2019-06-01T12:56:44.816Z,31.60
2019-06-01T12:59:14.875Z,31.70
2019-06-01T13:01:45.237Z,31.70
2019-06-01T13:04:15.412Z,31.10
2019-06-01T13:06:50.199Z,30.50
2019-06-01T13:09:17.159Z,30.20
2019-06-01T13:11:47.472Z,30.10
2019-06-01T13:14:17.463Z,29.50
2019-06-01T13:17:02.986Z,30.00
2019-06-01T13:19:19.754Z,30.10
2019-06-01T13:21:50.255Z,30.10
2019-06-01T13:24:21.300Z,30.40
2019-06-01T13:26:51.950Z,30.10
2019-06-01T13:29:21.926Z,29.60
2019-06-01T13:31:52.629Z,29.40
2019-06-01T13:34:22.700Z,29.00
2019-06-01T13:36:53.031Z,28.30
2019-06-01T13:39:23.127Z,27.80
2019-06-01T13:41:53.489Z,27.20
2019-06-01T13:44:23.599Z,26.50
2019-06-01T13:46:53.795Z,26.10
2019-06-01T13:49:23.707Z,25.70
2019-06-01T13:51:54.719Z,25.50
2019-06-01T13:54:24.763Z,25.30
2019-06-01T13:56:55.189Z,25.20
2019-06-01T13:59:25.240Z,25.00
2019-06-01T14:01:55.452Z,24.90
2019-06-01T14:04:25.518Z,24.80
2019-06-01T14:06:55.569Z,24.60
2019-06-01T14:09:25.607Z,24.70
2019-06-01T14:11:55.656Z,24.90
2019-06-01T14:14:25.606Z,24.90
2019-06-01T14:16:55.802Z,25.00
2019-06-01T14:19:25.879Z,24.90
2019-06-01T14:21:56.024Z,24.90
2019-06-01T14:24:26.212Z,25.00
2019-06-01T14:26:56.445Z,25.10
2019-06-01T14:29:26.377Z,25.10
2019-06-01T14:31:57.335Z,25.20
2019-06-01T14:34:27.382Z,25.10
2019-06-01T14:36:57.409Z,25.20
2019-06-01T14:39:27.513Z,25.30
2019-06-01T14:41:57.719Z,24.90
2019-06-01T14:44:27.666Z,25.00
2019-06-01T14:47:03.805Z,25.30
2019-06-01T14:49:29.481Z,25.50
2019-06-01T14:51:59.563Z,25.70
2019-06-01T14:54:29.580Z,25.70
2019-06-01T14:56:59.590Z,25.70
2019-06-01T14:59:29.584Z,26.10
2019-06-01T15:01:59.502Z,25.60
2019-06-01T15:04:29.544Z,25.30
2019-06-01T15:06:59.564Z,25.20
2019-06-01T15:09:29.654Z,25.30
2019-06-01T15:11:59.737Z,25.40
2019-06-01T15:14:29.698Z,25.50
2019-06-01T15:16:59.697Z,25.60
2019-06-01T15:19:29.597Z,25.60
2019-06-01T15:21:59.618Z,25.50
2019-06-01T15:24:29.539Z,25.30
2019-06-01T15:26:59.480Z,25.30
2019-06-01T15:29:29.562Z,25.10
2019-06-01T15:32:00.201Z,25.20
2019-06-01T15:34:30.235Z,25.10
2019-06-01T15:37:00.302Z,24.90
2019-06-01T15:39:30.259Z,25.00
2019-06-01T15:42:01.354Z,25.00
2019-06-01T15:44:31.390Z,24.70
2019-06-01T15:47:02.054Z,24.90
2019-06-01T15:49:32.330Z,24.80
2019-06-01T15:52:02.329Z,24.80
2019-06-01T15:54:32.383Z,24.90
2019-06-01T15:57:02.713Z,24.90
2019-06-01T15:59:32.886Z,25.00
2019-06-01T16:02:03.432Z,24.90
2019-06-01T16:04:33.582Z,24.80
2019-06-01T16:07:03.667Z,24.70
2019-06-01T16:09:42.515Z,24.70
2019-06-01T16:12:05.669Z,24.80
2019-06-01T16:14:35.693Z,24.80
2019-06-01T16:17:05.973Z,24.80
2019-06-01T16:19:35.993Z,25.00
2019-06-01T16:22:06.149Z,25.20
2019-06-01T16:24:36.131Z,25.40
2019-06-01T16:27:06.522Z,25.70
2019-06-01T16:29:36.612Z,25.70
2019-06-01T16:32:06.688Z,26.00
2019-06-01T16:34:36.772Z,25.90
2019-06-01T16:37:06.832Z,25.70
2019-06-01T16:39:36.768Z,25.70
2019-06-01T16:42:06.956Z,25.70
2019-06-01T16:44:36.920Z,25.80
2019-06-01T16:47:06.924Z,25.50
2019-06-01T16:49:36.941Z,25.70
2019-06-01T16:52:07.237Z,25.50
2019-06-01T16:54:37.337Z,25.30
2019-06-01T16:57:07.493Z,25.00
2019-06-01T16:59:37.652Z,24.90
2019-06-01T17:02:08.051Z,24.70
2019-06-01T17:04:38.159Z,24.80
2019-06-01T17:07:08.883Z,24.70
2019-06-01T17:09:38.839Z,24.70
2019-06-01T17:12:08.815Z,24.70
2019-06-01T17:14:38.882Z,24.60
2019-06-01T17:17:08.912Z,24.70
2019-06-01T17:19:38.911Z,24.60
2019-06-01T17:22:09.094Z,24.60
2019-06-01T17:24:39.170Z,24.50
2019-06-01T17:27:09.178Z,24.50
2019-06-01T17:29:39.331Z,24.50
2019-06-01T17:32:23.535Z,24.60
2019-06-01T17:34:41.351Z,24.40
2019-06-01T17:37:11.336Z,24.10
2019-06-01T17:39:41.342Z,24.00
2019-06-01T17:42:12.635Z,23.90
2019-06-01T17:44:42.664Z,24.00
2019-06-01T17:47:12.817Z,23.90
2019-06-01T17:49:42.782Z,23.70
2019-06-01T17:52:12.815Z,23.70
2019-06-01T17:54:42.880Z,23.60
2019-06-01T17:57:12.886Z,23.40
2019-06-01T17:59:42.972Z,23.30
2019-06-01T18:02:13.135Z,23.10
2019-06-01T18:04:43.189Z,23.10
2019-06-01T18:07:13.434Z,23.00
2019-06-01T18:09:43.546Z,23.00
2019-06-01T18:12:13.574Z,23.10
2019-06-01T18:14:43.590Z,22.90
2019-06-01T18:17:13.535Z,22.80
2019-06-01T18:19:43.538Z,22.90
2019-06-01T18:22:13.546Z,22.70
2019-06-01T18:24:44.042Z,22.50
2019-06-01T18:27:14.217Z,22.40
2019-06-01T18:29:48.802Z,22.30
2019-06-01T18:32:17.358Z,22.40
2019-06-01T18:34:47.443Z,22.30
2019-06-01T18:37:17.611Z,22.20
2019-06-01T18:39:48.505Z,22.10
2019-06-01T18:42:19.779Z,22.10
2019-06-01T18:44:49.949Z,22.10
2019-06-01T18:47:31.788Z,21.90
2019-06-01T18:49:51.821Z,21.90
2019-06-01T18:52:21.942Z,21.80
2019-06-01T18:54:51.926Z,21.70
2019-06-01T18:57:22.016Z,21.60
2019-06-01T18:59:52.067Z,21.50
2019-06-01T19:02:22.289Z,21.30
2019-06-01T19:04:52.472Z,21.20
2019-06-01T19:07:22.509Z,21.20
2019-06-01T19:09:52.598Z,21.10
2019-06-01T19:12:24.477Z,21.10
2019-06-01T19:14:54.244Z,21.00
2019-06-01T19:17:25.173Z,21.00
2019-06-01T19:19:55.107Z,20.90
2019-06-01T19:22:25.294Z,20.80
2019-06-01T19:24:55.329Z,20.70
2019-06-01T19:27:25.332Z,20.60
2019-06-01T19:29:55.307Z,20.60
2019-06-01T19:32:25.578Z,20.50
2019-06-01T19:34:55.925Z,20.30
2019-06-01T19:37:26.874Z,20.20
2019-06-01T19:39:57.226Z,20.20
2019-06-01T19:42:27.208Z,20.10
2019-06-01T19:44:57.120Z,20.10
2019-06-01T19:47:27.167Z,20.00
2019-06-01T19:49:57.173Z,20.00
2019-06-01T19:52:27.165Z,20.00
2019-06-01T19:54:57.323Z,19.90
2019-06-01T19:57:27.359Z,19.90
2019-06-01T19:59:57.309Z,19.80
2019-06-01T20:02:33.743Z,19.70
2019-06-01T20:04:59.094Z,19.60
2019-06-01T20:07:29.064Z,19.60
2019-06-01T20:09:59.110Z,19.60
2019-06-01T20:12:29.093Z,19.60
2019-06-01T20:14:59.032Z,19.70
2019-06-01T20:17:28.942Z,19.80
2019-06-01T20:19:58.860Z,19.80
2019-06-01T20:22:28.852Z,19.80
2019-06-01T20:24:58.785Z,19.80
2019-06-01T20:27:28.715Z,19.80
2019-06-01T20:29:58.710Z,19.80
2019-06-01T20:32:28.720Z,19.70
2019-06-01T20:34:58.730Z,19.70
2019-06-01T20:37:28.847Z,19.60
2019-06-01T20:39:58.779Z,19.60
2019-06-01T20:42:32.228Z,19.50
2019-06-01T20:45:00.491Z,19.50
2019-06-01T20:47:30.479Z,19.50
2019-06-01T20:50:00.482Z,19.60
2019-06-01T20:52:30.495Z,19.40
2019-06-01T20:55:00.499Z,19.30
2019-06-01T20:57:30.411Z,19.20
2019-06-01T21:00:00.419Z,19.10
2019-06-01T21:02:30.347Z,19.10
2019-06-01T21:05:00.293Z,19.10
2019-06-01T21:07:30.286Z,19.00
2019-06-01T21:10:00.266Z,19.00
2019-06-01T21:12:44.088Z,18.80
2019-06-01T21:15:02.008Z,18.80
2019-06-01T21:17:31.915Z,18.80
2019-06-01T21:20:04.620Z,19.00
2019-06-01T21:22:33.734Z,19.10
2019-06-01T21:25:03.921Z,19.10
2019-06-01T21:27:34.018Z,19.10
2019-06-01T21:30:04.590Z,19.20
2019-06-01T21:32:34.606Z,19.30
2019-06-01T21:35:06.214Z,19.30
2019-06-01T21:37:36.230Z,19.30
2019-06-01T21:40:07.880Z,19.30
2019-06-01T21:42:38.831Z,19.30
2019-06-01T21:45:10.413Z,19.20
2019-06-01T21:47:40.418Z,19.10
2019-06-01T21:50:12.288Z,19.10
2019-06-01T21:52:44.604Z,19.20
2019-06-01T21:55:15.989Z,19.20
2019-06-01T21:57:46.273Z,19.30
2019-06-01T22:00:31.039Z,19.20
2019-06-01T22:03:01.244Z,19.20
2019-06-01T22:05:34.141Z,19.30
2019-06-01T22:08:04.614Z,19.30
2019-06-01T22:10:34.820Z,19.10
2019-06-01T22:13:18.283Z,19.00
2019-06-01T22:15:36.832Z,18.80
2019-06-01T22:18:08.204Z,18.70
2019-06-01T22:20:38.148Z,18.60
2019-06-01T22:23:11.439Z,18.50
2019-06-01T22:25:39.887Z,18.50
2019-06-01T22:28:10.076Z,18.40
2019-06-01T22:30:40.357Z,18.30
2019-06-01T22:33:10.365Z,18.30
2019-06-01T22:35:40.507Z,18.40
2019-06-01T22:38:10.569Z,18.30
2019-06-01T22:40:40.596Z,18.30
2019-06-01T22:43:10.524Z,18.40
2019-06-01T22:45:40.479Z,18.40
2019-06-01T22:48:10.495Z,18.30
2019-06-01T22:50:40.818Z,18.20
2019-06-01T22:53:11.525Z,18.30
2019-06-01T22:55:41.676Z,18.20
2019-06-01T22:58:11.599Z,18.00
2019-06-01T23:00:41.739Z,17.80
2019-06-01T23:03:11.781Z,17.50
2019-06-01T23:05:41.813Z,17.40
2019-06-01T23:08:11.969Z,17.30
2019-06-01T23:10:42.096Z,17.30
2019-06-01T23:13:12.235Z,17.30
2019-06-01T23:15:42.443Z,17.40
2019-06-01T23:18:12.553Z,17.50
2019-06-01T23:20:42.633Z,17.60
2019-06-01T23:23:12.708Z,17.70
2019-06-01T23:25:42.808Z,17.70
2019-06-01T23:28:12.884Z,17.80
2019-06-01T23:30:42.888Z,17.70
2019-06-01T23:33:12.867Z,17.50
2019-06-01T23:35:42.987Z,17.30
2019-06-01T23:38:13.097Z,17.20
2019-06-01T23:40:43.236Z,17.10
2019-06-01T23:43:13.257Z,17.00
2019-06-01T23:45:43.284Z,16.80
2019-06-01T23:48:13.448Z,16.60
2019-06-01T23:50:43.645Z,16.60
2019-06-01T23:53:14.179Z,16.60
2019-06-01T23:55:44.362Z,16.70
2019-06-01T23:58:14.363Z,16.70
